Hurup, Denmark

7:38 PM CET on February 12, 2016 (GMT +0100)
Lemvig | | Change Station
CLOSE
Current Station
Personal Weather Station
Location: Lemvig,
Elevation: 82 ft
Nearby Weather Stations

Elev 82 ft 56.55 °N, 8.24 °E | Updated 8 minutes ago

Clear
Clear
30.7 °F
Feels Like 31 °F
N
2.0
Wind Variable Wind from NE
Gusts 2.0 mph

Today
High -- | Low -- °F
--% Chance of Precip.
Yesterday
High -- | Low -- °F
Precip. -- in
Pressure 29.56 in
Visibility 6.2 miles
Clouds
Windchill 31 °F
Dew Point 26 °F
Humidity 83%
Rainfall 0.00 in
Snow Depth Not available.
8:02 AM 5:19 PM
Waxing Crescent, 22% visible
METAR EKKA 121820Z AUTO 00000KT 9999NDV NCD M04/M06 Q1001
Pressure 29.56 in
Visibility 6.2 miles
Clouds
Windchill 31 °F
Dew Point 26 °F
Humidity 83%
Rainfall 0.00 in
Snow Depth Not available.
8:02 AM 5:19 PM
Waxing Crescent, 22% visible
METAR EKKA 121820Z AUTO 00000KT 9999NDV NCD M04/M06 Q1001

10-Day Weather Forecast

Almanac

Astronomy

Feb. 12, 2016 Rise Set
Actual Time
Civil Twilight
Nautical Twilight
Astronomical Twilight
Moon
Length of Visible Light
Length of Day
Tomorrow will be .
, % of the Moon is Illuminated

Today's Extremes

Country Highs Country Lows

Community

WunderPhotos

Upload Photos

1,892,366 photos uploaded!

WunderBlog® & News

Nearby

Air Quality

  Air Quality AQ Index Pollutant
Not available.

Snow Depth

Station Depth Elevation

Earthquake Activity

City Distance Mag. Time & Date
Minimum magnitude displayed is 2.5.

Coastal Water Temperatures

Place Temperature

Stations

Nearby Weather Stations

Station Location Temp. Windchill Dew Point Humidity Wind Precip. Elev Updated Type